sensor_id;sensor_type;location;lat;lon;timestamp;P1;durP1;ratioP1;P2;durP2;ratioP2
14306;SDS011;7237;49.500;11.400;2023-03-01T00:02:09;12.73;;;8.50;;
14306;SDS011;7237;49.500;11.400;2023-03-01T00:04:36;9.90;;;8.80;;
14306;SDS011;7237;49.500;11.400;2023-03-01T00:07:05;11.13;;;8.37;;
14306;SDS011;7237;49.500;11.400;2023-03-01T00:09:32;11.03;;;8.47;;
14306;SDS011;7237;49.500;11.400;2023-03-01T00:11:59;10.10;;;8.33;;
14306;SDS011;7237;49.500;11.400;2023-03-01T00:14:26;12.90;;;8.70;;
14306;SDS011;7237;49.500;11.400;2023-03-01T00:16:53;11.13;;;8.37;;
14306;SDS011;7237;49.500;11.400;2023-03-01T00:19:20;13.40;;;9.07;;
14306;SDS011;7237;49.500;11.400;2023-03-01T00:21:48;9.50;;;7.87;;
14306;SDS011;7237;49.500;11.400;2023-03-01T00:24:16;9.93;;;8.60;;
14306;SDS011;7237;49.500;11.400;2023-03-01T00:26:43;12.33;;;9.07;;
14306;SDS011;7237;49.500;11.400;2023-03-01T00:29:11;9.23;;;7.63;;
14306;SDS011;7237;49.500;11.400;2023-03-01T00:31:38;11.97;;;8.13;;
14306;SDS011;7237;49.500;11.400;2023-03-01T00:34:05;11.40;;;8.40;;
14306;SDS011;7237;49.500;11.400;2023-03-01T00:36:33;15.00;;;9.17;;
14306;SDS011;7237;49.500;11.400;2023-03-01T00:39:01;11.47;;;8.30;;
14306;SDS011;7237;49.500;11.400;2023-03-01T00:41:30;11.23;;;9.17;;
14306;SDS011;7237;49.500;11.400;2023-03-01T00:43:59;12.63;;;8.60;;
14306;SDS011;7237;49.500;11.400;2023-03-01T00:46:26;14.10;;;8.63;;
14306;SDS011;7237;49.500;11.400;2023-03-01T00:48:55;10.77;;;8.27;;
14306;SDS011;7237;49.500;11.400;2023-03-01T00:51:23;12.37;;;8.83;;
14306;SDS011;7237;49.500;11.400;2023-03-01T00:53:50;11.17;;;8.50;;
14306;SDS011;7237;49.500;11.400;2023-03-01T00:56:17;11.17;;;8.60;;
14306;SDS011;7237;49.500;11.400;2023-03-01T00:58:46;11.63;;;8.90;;
14306;SDS011;7237;49.500;11.400;2023-03-01T01:01:14;9.37;;;8.33;;
14306;SDS011;7237;49.500;11.400;2023-03-01T01:03:43;11.77;;;7.83;;
14306;SDS011;7237;49.500;11.400;2023-03-01T01:06:17;12.23;;;8.53;;
14306;SDS011;7237;49.500;11.400;2023-03-01T01:08:44;13.53;;;8.77;;
14306;SDS011;7237;49.500;11.400;2023-03-01T01:11:11;10.53;;;9.07;;
14306;SDS011;7237;49.500;11.400;2023-03-01T01:13:39;9.70;;;8.17;;
14306;SDS011;7237;49.500;11.400;2023-03-01T01:16:08;12.30;;;8.57;;
14306;SDS011;7237;49.500;11.400;2023-03-01T01:18:35;11.27;;;8.43;;
14306;SDS011;7237;49.500;11.400;2023-03-01T01:21:03;10.90;;;7.83;;
14306;SDS011;7237;49.500;11.400;2023-03-01T01:23:30;9.33;;;7.53;;
14306;SDS011;7237;49.500;11.400;2023-03-01T01:25:57;11.50;;;9.33;;
14306;SDS011;7237;49.500;11.400;2023-03-01T01:28:29;11.67;;;8.70;;
14306;SDS011;7237;49.500;11.400;2023-03-01T01:30:56;12.47;;;7.60;;
14306;SDS011;7237;49.500;11.400;2023-03-01T01:33:24;11.37;;;8.27;;
14306;SDS011;7237;49.500;11.400;2023-03-01T01:35:51;11.13;;;8.80;;
14306;SDS011;7237;49.500;11.400;2023-03-01T01:38:19;9.37;;;8.07;;
14306;SDS011;7237;49.500;11.400;2023-03-01T01:40:47;10.80;;;9.17;;
14306;SDS011;7237;49.500;11.400;2023-03-01T01:43:16;14.93;;;9.37;;
14306;SDS011;7237;49.500;11.400;2023-03-01T01:45:44;10.37;;;8.93;;
14306;SDS011;7237;49.500;11.400;2023-03-01T01:48:12;12.50;;;9.13;;
14306;SDS011;7237;49.500;11.400;2023-03-01T01:50:41;10.53;;;8.33;;
14306;SDS011;7237;49.500;11.400;2023-03-01T01:53:10;11.50;;;9.37;;
14306;SDS011;7237;49.500;11.400;2023-03-01T01:55:39;11.83;;;8.97;;
14306;SDS011;7237;49.500;11.400;2023-03-01T01:58:08;11.93;;;8.77;;
14306;SDS011;7237;49.500;11.400;2023-03-01T02:00:36;11.00;;;8.43;;
14306;SDS011;7237;49.500;11.400;2023-03-01T02:03:04;10.27;;;8.50;;
14306;SDS011;7237;49.500;11.400;2023-03-01T02:05:34;12.17;;;8.53;;
14306;SDS011;7237;49.500;11.400;2023-03-01T02:08:04;10.27;;;8.30;;
14306;SDS011;7237;49.500;11.400;2023-03-01T02:10:32;12.53;;;9.30;;
14306;SDS011;7237;49.500;11.400;2023-03-01T02:12:59;11.60;;;8.90;;
14306;SDS011;7237;49.500;11.400;2023-03-01T02:15:27;11.23;;;8.57;;
14306;SDS011;7237;49.500;11.400;2023-03-01T02:17:58;11.27;;;9.07;;
14306;SDS011;7237;49.500;11.400;2023-03-01T02:20:26;10.03;;;8.20;;
14306;SDS011;7237;49.500;11.400;2023-03-01T02:22:56;12.63;;;9.23;;
14306;SDS011;7237;49.500;11.400;2023-03-01T02:25:27;11.43;;;9.00;;
14306;SDS011;7237;49.500;11.400;2023-03-01T02:27:54;11.63;;;8.47;;
14306;SDS011;7237;49.500;11.400;2023-03-01T02:30:24;10.70;;;8.53;;
14306;SDS011;7237;49.500;11.400;2023-03-01T02:32:53;11.03;;;7.87;;
14306;SDS011;7237;49.500;11.400;2023-03-01T02:35:21;13.10;;;8.27;;
14306;SDS011;7237;49.500;11.400;2023-03-01T02:37:49;11.67;;;8.23;;
14306;SDS011;7237;49.500;11.400;2023-03-01T02:40:17;10.53;;;8.50;;
14306;SDS011;7237;49.500;11.400;2023-03-01T02:42:47;9.87;;;8.00;;
14306;SDS011;7237;49.500;11.400;2023-03-01T02:45:16;11.77;;;8.80;;
14306;SDS011;7237;49.500;11.400;2023-03-01T02:47:45;12.20;;;9.17;;
14306;SDS011;7237;49.500;11.400;2023-03-01T02:50:14;11.43;;;8.90;;
14306;SDS011;7237;49.500;11.400;2023-03-01T02:52:43;13.70;;;8.80;;
14306;SDS011;7237;49.500;11.400;2023-03-01T02:55:13;11.47;;;9.10;;
14306;SDS011;7237;49.500;11.400;2023-03-01T02:57:41;11.33;;;8.43;;
14306;SDS011;7237;49.500;11.400;2023-03-01T03:00:10;12.87;;;8.47;;
14306;SDS011;7237;49.500;11.400;2023-03-01T03:02:45;11.30;;;8.57;;
14306;SDS011;7237;49.500;11.400;2023-03-01T03:05:14;14.13;;;8.97;;
14306;SDS011;7237;49.500;11.400;2023-03-01T03:07:42;10.97;;;9.03;;
14306;SDS011;7237;49.500;11.400;2023-03-01T03:10:10;12.90;;;7.93;;
14306;SDS011;7237;49.500;11.400;2023-03-01T03:12:39;10.93;;;8.87;;
14306;SDS011;7237;49.500;11.400;2023-03-01T03:15:07;11.60;;;8.60;;
14306;SDS011;7237;49.500;11.400;2023-03-01T03:17:35;13.27;;;9.53;;
14306;SDS011;7237;49.500;11.400;2023-03-01T03:20:03;12.73;;;8.80;;
14306;SDS011;7237;49.500;11.400;2023-03-01T03:22:31;11.10;;;8.87;;
14306;SDS011;7237;49.500;11.400;2023-03-01T03:24:59;11.03;;;8.67;;
14306;SDS011;7237;49.500;11.400;2023-03-01T03:27:27;10.60;;;8.63;;
14306;SDS011;7237;49.500;11.400;2023-03-01T03:29:54;10.83;;;8.47;;
14306;SDS011;7237;49.500;11.400;2023-03-01T03:32:21;10.90;;;8.80;;
14306;SDS011;7237;49.500;11.400;2023-03-01T03:34:48;11.67;;;9.20;;
14306;SDS011;7237;49.500;11.400;2023-03-01T03:37:16;13.07;;;9.10;;
14306;SDS011;7237;49.500;11.400;2023-03-01T03:39:58;12.10;;;8.67;;
14306;SDS011;7237;49.500;11.400;2023-03-01T03:42:25;10.77;;;8.57;;
14306;SDS011;7237;49.500;11.400;2023-03-01T03:44:52;15.70;;;8.57;;
14306;SDS011;7237;49.500;11.400;2023-03-01T03:47:19;11.93;;;9.27;;
14306;SDS011;7237;49.500;11.400;2023-03-01T03:49:46;10.70;;;8.60;;
14306;SDS011;7237;49.500;11.400;2023-03-01T03:52:13;12.90;;;9.20;;
14306;SDS011;7237;49.500;11.400;2023-03-01T03:54:41;12.53;;;8.90;;
14306;SDS011;7237;49.500;11.400;2023-03-01T03:57:09;12.90;;;9.13;;
14306;SDS011;7237;49.500;11.400;2023-03-01T03:59:36;11.87;;;9.10;;
14306;SDS011;7237;49.500;11.400;2023-03-01T04:02:03;14.53;;;9.13;;
14306;SDS011;7237;49.500;11.400;2023-03-01T04:04:30;13.70;;;9.63;;
14306;SDS011;7237;49.500;11.400;2023-03-01T04:06:57;10.93;;;8.80;;
14306;SDS011;7237;49.500;11.400;2023-03-01T04:09:24;14.80;;;9.73;;
14306;SDS011;7237;49.500;11.400;2023-03-01T04:11:53;11.63;;;9.63;;
14306;SDS011;7237;49.500;11.400;2023-03-01T04:14:20;11.47;;;9.37;;
14306;SDS011;7237;49.500;11.400;2023-03-01T04:16:47;10.90;;;9.13;;
14306;SDS011;7237;49.500;11.400;2023-03-01T04:19:14;14.57;;;9.20;;
14306;SDS011;7237;49.500;11.400;2023-03-01T04:21:41;10.63;;;9.00;;
14306;SDS011;7237;49.500;11.400;2023-03-01T04:24:08;10.90;;;8.73;;
14306;SDS011;7237;49.500;11.400;2023-03-01T04:26:35;13.20;;;9.47;;
14306;SDS011;7237;49.500;11.400;2023-03-01T04:29:03;12.17;;;9.60;;
14306;SDS011;7237;49.500;11.400;2023-03-01T04:31:30;13.47;;;9.20;;
14306;SDS011;7237;49.500;11.400;2023-03-01T04:33:59;10.90;;;8.87;;
14306;SDS011;7237;49.500;11.400;2023-03-01T04:36:27;11.53;;;9.23;;
14306;SDS011;7237;49.500;11.400;2023-03-01T04:38:54;13.43;;;9.73;;
14306;SDS011;7237;49.500;11.400;2023-03-01T04:41:22;11.40;;;8.80;;
14306;SDS011;7237;49.500;11.400;2023-03-01T04:43:49;12.90;;;9.17;;
14306;SDS011;7237;49.500;11.400;2023-03-01T04:46:18;11.70;;;9.07;;
14306;SDS011;7237;49.500;11.400;2023-03-01T04:48:46;10.10;;;8.17;;
14306;SDS011;7237;49.500;11.400;2023-03-01T04:51:13;13.77;;;9.23;;
14306;SDS011;7237;49.500;11.400;2023-03-01T04:53:41;14.03;;;9.70;;
14306;SDS011;7237;49.500;11.400;2023-03-01T04:56:08;12.53;;;9.17;;
14306;SDS011;7237;49.500;11.400;2023-03-01T04:58:35;13.83;;;9.17;;
14306;SDS011;7237;49.500;11.400;2023-03-01T05:01:07;12.77;;;9.23;;
14306;SDS011;7237;49.500;11.400;2023-03-01T05:03:41;13.37;;;9.30;;
14306;SDS011;7237;49.500;11.400;2023-03-01T05:06:09;10.90;;;9.00;;
14306;SDS011;7237;49.500;11.400;2023-03-01T05:08:36;12.17;;;9.53;;
14306;SDS011;7237;49.500;11.400;2023-03-01T05:11:03;13.90;;;8.97;;
14306;SDS011;7237;49.500;11.400;2023-03-01T05:13:34;10.20;;;9.03;;
14306;SDS011;7237;49.500;11.400;2023-03-01T05:16:01;12.40;;;9.50;;
14306;SDS011;7237;49.500;11.400;2023-03-01T05:18:29;10.00;;;8.73;;
14306;SDS011;7237;49.500;11.400;2023-03-01T05:21:01;12.43;;;9.60;;
14306;SDS011;7237;49.500;11.400;2023-03-01T05:23:29;11.20;;;8.87;;
14306;SDS011;7237;49.500;11.400;2023-03-01T05:25:57;11.43;;;9.43;;
14306;SDS011;7237;49.500;11.400;2023-03-01T05:28:24;10.17;;;8.70;;
14306;SDS011;7237;49.500;11.400;2023-03-01T05:30:51;12.57;;;9.27;;
14306;SDS011;7237;49.500;11.400;2023-03-01T05:33:18;10.97;;;8.50;;
14306;SDS011;7237;49.500;11.400;2023-03-01T05:35:47;11.50;;;9.00;;
14306;SDS011;7237;49.500;11.400;2023-03-01T05:38:15;11.63;;;9.33;;
14306;SDS011;7237;49.500;11.400;2023-03-01T05:40:43;12.40;;;9.43;;
14306;SDS011;7237;49.500;11.400;2023-03-01T05:43:11;11.70;;;9.47;;
14306;SDS011;7237;49.500;11.400;2023-03-01T05:45:38;14.13;;;9.67;;
14306;SDS011;7237;49.500;11.400;2023-03-01T05:48:06;12.93;;;9.13;;
14306;SDS011;7237;49.500;11.400;2023-03-01T05:50:34;11.17;;;8.63;;
14306;SDS011;7237;49.500;11.400;2023-03-01T05:53:02;11.63;;;9.73;;
14306;SDS011;7237;49.500;11.400;2023-03-01T05:55:32;13.03;;;9.27;;
14306;SDS011;7237;49.500;11.400;2023-03-01T05:57:59;11.77;;;9.17;;
14306;SDS011;7237;49.500;11.400;2023-03-01T06:00:26;10.67;;;8.77;;
14306;SDS011;7237;49.500;11.400;2023-03-01T06:02:54;14.77;;;10.30;;
14306;SDS011;7237;49.500;11.400;2023-03-01T06:05:21;10.87;;;8.97;;
14306;SDS011;7237;49.500;11.400;2023-03-01T06:07:48;13.53;;;9.37;;
14306;SDS011;7237;49.500;11.400;2023-03-01T06:10:16;12.57;;;9.33;;
14306;SDS011;7237;49.500;11.400;2023-03-01T06:12:45;11.20;;;9.10;;
14306;SDS011;7237;49.500;11.400;2023-03-01T06:15:12;10.63;;;8.97;;
14306;SDS011;7237;49.500;11.400;2023-03-01T06:17:40;15.60;;;9.73;;
14306;SDS011;7237;49.500;11.400;2023-03-01T06:20:09;12.07;;;9.40;;
14306;SDS011;7237;49.500;11.400;2023-03-01T06:22:36;11.37;;;9.03;;
14306;SDS011;7237;49.500;11.400;2023-03-01T06:25:04;12.33;;;9.77;;
14306;SDS011;7237;49.500;11.400;2023-03-01T06:27:31;12.87;;;9.13;;
14306;SDS011;7237;49.500;11.400;2023-03-01T06:30:00;14.80;;;9.87;;
14306;SDS011;7237;49.500;11.400;2023-03-01T06:32:27;13.07;;;9.20;;
14306;SDS011;7237;49.500;11.400;2023-03-01T06:34:55;12.83;;;9.20;;
14306;SDS011;7237;49.500;11.400;2023-03-01T06:37:23;11.57;;;9.60;;
14306;SDS011;7237;49.500;11.400;2023-03-01T06:39:50;10.93;;;9.20;;
14306;SDS011;7237;49.500;11.400;2023-03-01T06:42:17;12.70;;;10.30;;
14306;SDS011;7237;49.500;11.400;2023-03-01T06:44:44;11.83;;;9.17;;
14306;SDS011;7237;49.500;11.400;2023-03-01T06:47:13;13.43;;;10.40;;
14306;SDS011;7237;49.500;11.400;2023-03-01T06:49:40;11.17;;;9.00;;
14306;SDS011;7237;49.500;11.400;2023-03-01T06:52:07;13.23;;;9.40;;
14306;SDS011;7237;49.500;11.400;2023-03-01T06:54:34;10.80;;;7.93;;
14306;SDS011;7237;49.500;11.400;2023-03-01T06:57:01;12.13;;;9.83;;
14306;SDS011;7237;49.500;11.400;2023-03-01T06:59:28;11.77;;;8.80;;
14306;SDS011;7237;49.500;11.400;2023-03-01T07:01:56;11.53;;;9.57;;
14306;SDS011;7237;49.500;11.400;2023-03-01T07:04:24;12.80;;;8.93;;
14306;SDS011;7237;49.500;11.400;2023-03-01T07:06:53;10.40;;;9.30;;
14306;SDS011;7237;49.500;11.400;2023-03-01T07:09:20;11.50;;;9.57;;
14306;SDS011;7237;49.500;11.400;2023-03-01T07:11:47;14.40;;;9.47;;
14306;SDS011;7237;49.500;11.400;2023-03-01T07:14:14;12.07;;;9.20;;
14306;SDS011;7237;49.500;11.400;2023-03-01T07:16:41;11.83;;;10.00;;
14306;SDS011;7237;49.500;11.400;2023-03-01T07:19:08;12.13;;;9.87;;
14306;SDS011;7237;49.500;11.400;2023-03-01T07:21:37;10.40;;;9.20;;
14306;SDS011;7237;49.500;11.400;2023-03-01T07:24:04;11.43;;;8.87;;
14306;SDS011;7237;49.500;11.400;2023-03-01T07:26:32;14.83;;;10.53;;
14306;SDS011;7237;49.500;11.400;2023-03-01T07:28:59;13.13;;;9.37;;
14306;SDS011;7237;49.500;11.400;2023-03-01T07:31:26;11.37;;;8.67;;
14306;SDS011;7237;49.500;11.400;2023-03-01T07:33:53;12.53;;;9.80;;
14306;SDS011;7237;49.500;11.400;2023-03-01T07:36:21;12.10;;;9.50;;
14306;SDS011;7237;49.500;11.400;2023-03-01T07:38:49;12.10;;;9.57;;
14306;SDS011;7237;49.500;11.400;2023-03-01T07:41:16;13.00;;;9.97;;
14306;SDS011;7237;49.500;11.400;2023-03-01T07:43:44;13.10;;;10.07;;
14306;SDS011;7237;49.500;11.400;2023-03-01T07:46:11;12.73;;;9.73;;
14306;SDS011;7237;49.500;11.400;2023-03-01T07:48:38;14.07;;;10.17;;
14306;SDS011;7237;49.500;11.400;2023-03-01T07:51:06;13.20;;;10.10;;
14306;SDS011;7237;49.500;11.400;2023-03-01T07:53:33;13.33;;;9.83;;
14306;SDS011;7237;49.500;11.400;2023-03-01T07:56:03;11.30;;;9.33;;
14306;SDS011;7237;49.500;11.400;2023-03-01T07:58:30;11.97;;;10.13;;
14306;SDS011;7237;49.500;11.400;2023-03-01T08:01:00;12.83;;;10.23;;
14306;SDS011;7237;49.500;11.400;2023-03-01T08:03:28;12.20;;;9.50;;
14306;SDS011;7237;49.500;11.400;2023-03-01T08:05:55;13.00;;;10.90;;
14306;SDS011;7237;49.500;11.400;2023-03-01T08:08:22;12.73;;;10.33;;
14306;SDS011;7237;49.500;11.400;2023-03-01T08:10:49;11.63;;;9.87;;
14306;SDS011;7237;49.500;11.400;2023-03-01T08:13:18;12.97;;;10.13;;
14306;SDS011;7237;49.500;11.400;2023-03-01T08:15:47;13.17;;;10.40;;
14306;SDS011;7237;49.500;11.400;2023-03-01T08:18:14;15.73;;;10.20;;
14306;SDS011;7237;49.500;11.400;2023-03-01T08:20:41;12.00;;;10.00;;
14306;SDS011;7237;49.500;11.400;2023-03-01T08:23:09;13.50;;;10.70;;
14306;SDS011;7237;49.500;11.400;2023-03-01T08:25:36;13.77;;;10.03;;
14306;SDS011;7237;49.500;11.400;2023-03-01T08:28:03;12.67;;;10.43;;
14306;SDS011;7237;49.500;11.400;2023-03-01T08:30:31;10.63;;;9.53;;
14306;SDS011;7237;49.500;11.400;2023-03-01T08:32:58;11.87;;;9.77;;
14306;SDS011;7237;49.500;11.400;2023-03-01T08:35:25;14.17;;;10.37;;
14306;SDS011;7237;49.500;11.400;2023-03-01T08:37:52;15.57;;;10.20;;
14306;SDS011;7237;49.500;11.400;2023-03-01T08:40:19;13.00;;;10.13;;
14306;SDS011;7237;49.500;11.400;2023-03-01T08:42:46;13.53;;;9.80;;
14306;SDS011;7237;49.500;11.400;2023-03-01T08:45:14;10.80;;;9.63;;
14306;SDS011;7237;49.500;11.400;2023-03-01T08:47:44;13.10;;;10.63;;
14306;SDS011;7237;49.500;11.400;2023-03-01T08:50:11;12.60;;;10.07;;
14306;SDS011;7237;49.500;11.400;2023-03-01T08:52:38;11.30;;;10.10;;
14306;SDS011;7237;49.500;11.400;2023-03-01T08:55:06;12.53;;;9.77;;
14306;SDS011;7237;49.500;11.400;2023-03-01T08:57:33;13.40;;;10.07;;
14306;SDS011;7237;49.500;11.400;2023-03-01T09:00:00;11.87;;;9.60;;
14306;SDS011;7237;49.500;11.400;2023-03-01T09:02:28;11.67;;;9.93;;
14306;SDS011;7237;49.500;11.400;2023-03-01T09:04:56;12.47;;;10.17;;
14306;SDS011;7237;49.500;11.400;2023-03-01T09:07:23;13.57;;;10.50;;
14306;SDS011;7237;49.500;11.400;2023-03-01T09:09:53;15.00;;;9.93;;
14306;SDS011;7237;49.500;11.400;2023-03-01T09:12:20;13.37;;;10.30;;
14306;SDS011;7237;49.500;11.400;2023-03-01T09:14:47;12.43;;;9.77;;
14306;SDS011;7237;49.500;11.400;2023-03-01T09:17:14;14.33;;;10.83;;
14306;SDS011;7237;49.500;11.400;2023-03-01T09:19:41;12.87;;;10.07;;
14306;SDS011;7237;49.500;11.400;2023-03-01T09:22:09;11.97;;;10.27;;
14306;SDS011;7237;49.500;11.400;2023-03-01T09:24:36;14.23;;;10.70;;
14306;SDS011;7237;49.500;11.400;2023-03-01T09:27:04;14.70;;;10.13;;
14306;SDS011;7237;49.500;11.400;2023-03-01T09:29:33;14.00;;;10.53;;
14306;SDS011;7237;49.500;11.400;2023-03-01T09:32:00;14.30;;;10.07;;
14306;SDS011;7237;49.500;11.400;2023-03-01T09:34:27;12.27;;;10.07;;
14306;SDS011;7237;49.500;11.400;2023-03-01T09:36:56;14.10;;;10.23;;
14306;SDS011;7237;49.500;11.400;2023-03-01T09:39:26;14.30;;;10.13;;
14306;SDS011;7237;49.500;11.400;2023-03-01T09:41:54;14.33;;;10.80;;
14306;SDS011;7237;49.500;11.400;2023-03-01T09:44:27;12.80;;;10.23;;
14306;SDS011;7237;49.500;11.400;2023-03-01T09:46:56;13.10;;;10.23;;
14306;SDS011;7237;49.500;11.400;2023-03-01T09:49:24;15.77;;;9.93;;
14306;SDS011;7237;49.500;11.400;2023-03-01T09:51:55;14.30;;;10.03;;
14306;SDS011;7237;49.500;11.400;2023-03-01T09:54:23;13.80;;;10.43;;
14306;SDS011;7237;49.500;11.400;2023-03-01T09:56:56;10.97;;;9.73;;
14306;SDS011;7237;49.500;11.400;2023-03-01T09:59:25;14.03;;;9.97;;
14306;SDS011;7237;49.500;11.400;2023-03-01T10:01:55;12.33;;;9.93;;
14306;SDS011;7237;49.500;11.400;2023-03-01T10:04:28;14.00;;;9.77;;
14306;SDS011;7237;49.500;11.400;2023-03-01T10:07:05;13.27;;;10.17;;
14306;SDS011;7237;49.500;11.400;2023-03-01T10:09:34;12.30;;;9.57;;
14306;SDS011;7237;49.500;11.400;2023-03-01T10:12:06;13.20;;;9.93;;
14306;SDS011;7237;49.500;11.400;2023-03-01T10:14:35;15.30;;;10.43;;
14306;SDS011;7237;49.500;11.400;2023-03-01T10:17:04;14.00;;;9.40;;
14306;SDS011;7237;49.500;11.400;2023-03-01T10:19:32;13.30;;;10.00;;
14306;SDS011;7237;49.500;11.400;2023-03-01T10:22:03;14.53;;;10.07;;
14306;SDS011;7237;49.500;11.400;2023-03-01T10:24:34;13.80;;;10.33;;
14306;SDS011;7237;49.500;11.400;2023-03-01T10:27:02;16.60;;;9.93;;
14306;SDS011;7237;49.500;11.400;2023-03-01T10:29:34;10.97;;;9.33;;
14306;SDS011;7237;49.500;11.400;2023-03-01T10:32:04;12.00;;;9.93;;
14306;SDS011;7237;49.500;11.400;2023-03-01T10:34:32;14.07;;;9.87;;
14306;SDS011;7237;49.500;11.400;2023-03-01T10:37:01;12.57;;;9.40;;
14306;SDS011;7237;49.500;11.400;2023-03-01T10:39:28;13.37;;;9.73;;
14306;SDS011;7237;49.500;11.400;2023-03-01T10:41:57;11.52;;;10.27;;
14306;SDS011;7237;49.500;11.400;2023-03-01T10:44:36;12.50;;;9.43;;
14306;SDS011;7237;49.500;11.400;2023-03-01T10:47:03;12.60;;;9.43;;
14306;SDS011;7237;49.500;11.400;2023-03-01T10:49:30;11.13;;;9.17;;
14306;SDS011;7237;49.500;11.400;2023-03-01T10:51:57;14.27;;;10.23;;
14306;SDS011;7237;49.500;11.400;2023-03-01T10:54:37;11.93;;;9.03;;
14306;SDS011;7237;49.500;11.400;2023-03-01T10:57:09;15.37;;;10.53;;
14306;SDS011;7237;49.500;11.400;2023-03-01T11:00:02;12.90;;;9.93;;
14306;SDS011;7237;49.500;11.400;2023-03-01T11:02:37;11.77;;;9.47;;
14306;SDS011;7237;49.500;11.400;2023-03-01T11:05:13;11.20;;;8.97;;
14306;SDS011;7237;49.500;11.400;2023-03-01T11:07:49;12.53;;;10.37;;
14306;SDS011;7237;49.500;11.400;2023-03-01T11:10:17;11.75;;;10.25;;
14306;SDS011;7237;49.500;11.400;2023-03-01T11:12:44;11.80;;;9.90;;
14306;SDS011;7237;49.500;11.400;2023-03-01T11:15:20;10.03;;;8.50;;
14306;SDS011;7237;49.500;11.400;2023-03-01T11:17:49;12.77;;;9.20;;
14306;SDS011;7237;49.500;11.400;2023-03-01T11:20:18;12.47;;;8.70;;
14306;SDS011;7237;49.500;11.400;2023-03-01T11:22:47;12.20;;;8.43;;
14306;SDS011;7237;49.500;11.400;2023-03-01T11:25:16;12.13;;;8.73;;
14306;SDS011;7237;49.500;11.400;2023-03-01T11:27:44;11.57;;;9.27;;
14306;SDS011;7237;49.500;11.400;2023-03-01T11:30:13;11.70;;;9.07;;
14306;SDS011;7237;49.500;11.400;2023-03-01T11:32:45;10.27;;;8.43;;
14306;SDS011;7237;49.500;11.400;2023-03-01T11:35:14;12.47;;;9.27;;
14306;SDS011;7237;49.500;11.400;2023-03-01T11:37:44;13.00;;;9.30;;
14306;SDS011;7237;49.500;11.400;2023-03-01T11:40:20;12.37;;;8.63;;
14306;SDS011;7237;49.500;11.400;2023-03-01T11:42:55;11.10;;;9.17;;
14306;SDS011;7237;49.500;11.400;2023-03-01T11:45:26;13.13;;;8.47;;
14306;SDS011;7237;49.500;11.400;2023-03-01T11:48:01;12.55;;;9.73;;
14306;SDS011;7237;49.500;11.400;2023-03-01T11:50:30;10.57;;;8.70;;
14306;SDS011;7237;49.500;11.400;2023-03-01T11:53:06;11.40;;;8.97;;
14306;SDS011;7237;49.500;11.400;2023-03-01T11:55:46;11.67;;;9.20;;
14306;SDS011;7237;49.500;11.400;2023-03-01T11:58:20;11.57;;;9.40;;
14306;SDS011;7237;49.500;11.400;2023-03-01T12:03:50;12.87;;;9.07;;
14306;SDS011;7237;49.500;11.400;2023-03-01T12:06:22;9.67;;;7.70;;
14306;SDS011;7237;49.500;11.400;2023-03-01T12:08:54;11.13;;;8.60;;
14306;SDS011;7237;49.500;11.400;2023-03-01T12:11:25;10.00;;;8.33;;
14306;SDS011;7237;49.500;11.400;2023-03-01T12:14:05;10.70;;;8.20;;
14306;SDS011;7237;49.500;11.400;2023-03-01T12:16:40;14.10;;;8.97;;
14306;SDS011;7237;49.500;11.400;2023-03-01T12:19:27;9.53;;;7.73;;
14306;SDS011;7237;49.500;11.400;2023-03-01T12:22:03;9.87;;;8.60;;
14306;SDS011;7237;49.500;11.400;2023-03-01T12:24:35;11.10;;;8.43;;
14306;SDS011;7237;49.500;11.400;2023-03-01T12:27:13;9.90;;;8.00;;
14306;SDS011;7237;49.500;11.400;2023-03-01T12:29:46;10.57;;;8.70;;
14306;SDS011;7237;49.500;11.400;2023-03-01T12:32:30;11.23;;;8.50;;
14306;SDS011;7237;49.500;11.400;2023-03-01T12:37:55;8.50;;;7.60;;
14306;SDS011;7237;49.500;11.400;2023-03-01T12:40:28;9.60;;;7.63;;
14306;SDS011;7237;49.500;11.400;2023-03-01T12:42:59;10.33;;;8.30;;
14306;SDS011;7237;49.500;11.400;2023-03-01T12:48:20;13.70;;;9.10;;
14306;SDS011;7237;49.500;11.400;2023-03-01T12:50:51;11.70;;;8.93;;
14306;SDS011;7237;49.500;11.400;2023-03-01T12:53:26;10.47;;;7.80;;
14306;SDS011;7237;49.500;11.400;2023-03-01T12:55:54;11.63;;;8.80;;
14306;SDS011;7237;49.500;11.400;2023-03-01T12:58:24;10.53;;;7.90;;
14306;SDS011;7237;49.500;11.400;2023-03-01T13:00:59;10.27;;;8.77;;
14306;SDS011;7237;49.500;11.400;2023-03-01T13:03:29;11.87;;;8.50;;
14306;SDS011;7237;49.500;11.400;2023-03-01T13:06:03;12.33;;;8.77;;
14306;SDS011;7237;49.500;11.400;2023-03-01T13:08:33;9.60;;;7.70;;
14306;SDS011;7237;49.500;11.400;2023-03-01T13:11:05;14.77;;;8.63;;
14306;SDS011;7237;49.500;11.400;2023-03-01T13:13:32;9.73;;;7.67;;
14306;SDS011;7237;49.500;11.400;2023-03-01T13:16:19;11.63;;;9.33;;
14306;SDS011;7237;49.500;11.400;2023-03-01T13:18:47;10.70;;;8.33;;
14306;SDS011;7237;49.500;11.400;2023-03-01T13:21:14;12.30;;;8.57;;
14306;SDS011;7237;49.500;11.400;2023-03-01T13:23:57;10.63;;;8.47;;
14306;SDS011;7237;49.500;11.400;2023-03-01T13:26:24;9.20;;;6.73;;
14306;SDS011;7237;49.500;11.400;2023-03-01T13:28:52;11.10;;;8.50;;
14306;SDS011;7237;49.500;11.400;2023-03-01T13:34:08;9.47;;;7.80;;
14306;SDS011;7237;49.500;11.400;2023-03-01T13:37:02;10.67;;;7.93;;
14306;SDS011;7237;49.500;11.400;2023-03-01T13:39:39;10.93;;;8.83;;
14306;SDS011;7237;49.500;11.400;2023-03-01T13:44:49;10.90;;;8.40;;
14306;SDS011;7237;49.500;11.400;2023-03-01T13:47:16;28.13;;;8.73;;
14306;SDS011;7237;49.500;11.400;2023-03-01T13:49:46;10.83;;;8.10;;
14306;SDS011;7237;49.500;11.400;2023-03-01T13:55:13;10.90;;;8.03;;
14306;SDS011;7237;49.500;11.400;2023-03-01T13:57:43;10.33;;;8.23;;
14306;SDS011;7237;49.500;11.400;2023-03-01T14:00:24;9.13;;;7.10;;
14306;SDS011;7237;49.500;11.400;2023-03-01T14:02:59;12.90;;;7.13;;
14306;SDS011;7237;49.500;11.400;2023-03-01T14:05:26;8.83;;;7.23;;
14306;SDS011;7237;49.500;11.400;2023-03-01T14:07:54;10.23;;;7.23;;
14306;SDS011;7237;49.500;11.400;2023-03-01T14:10:22;13.90;;;8.20;;
14306;SDS011;7237;49.500;11.400;2023-03-01T14:12:52;9.70;;;7.83;;
14306;SDS011;7237;49.500;11.400;2023-03-01T14:15:22;9.80;;;7.93;;
14306;SDS011;7237;49.500;11.400;2023-03-01T14:17:54;9.63;;;8.07;;
14306;SDS011;7237;49.500;11.400;2023-03-01T14:20:23;10.60;;;8.17;;
14306;SDS011;7237;49.500;11.400;2023-03-01T14:22:51;10.00;;;8.00;;
14306;SDS011;7237;49.500;11.400;2023-03-01T14:25:22;9.53;;;7.53;;
14306;SDS011;7237;49.500;11.400;2023-03-01T14:27:51;10.90;;;8.43;;
14306;SDS011;7237;49.500;11.400;2023-03-01T14:30:21;9.87;;;7.40;;
14306;SDS011;7237;49.500;11.400;2023-03-01T14:32:52;8.73;;;7.10;;
14306;SDS011;7237;49.500;11.400;2023-03-01T14:35:20;8.63;;;7.20;;
14306;SDS011;7237;49.500;11.400;2023-03-01T14:37:47;11.13;;;7.87;;
14306;SDS011;7237;49.500;11.400;2023-03-01T14:40:20;11.13;;;7.80;;
14306;SDS011;7237;49.500;11.400;2023-03-01T14:42:49;8.30;;;7.30;;
14306;SDS011;7237;49.500;11.400;2023-03-01T14:45:17;8.77;;;7.43;;
14306;SDS011;7237;49.500;11.400;2023-03-01T14:47:45;8.23;;;7.20;;
14306;SDS011;7237;49.500;11.400;2023-03-01T14:50:15;9.17;;;7.40;;
14306;SDS011;7237;49.500;11.400;2023-03-01T14:52:47;8.63;;;7.37;;
14306;SDS011;7237;49.500;11.400;2023-03-01T14:55:15;8.87;;;7.07;;
14306;SDS011;7237;49.500;11.400;2023-03-01T14:57:44;8.30;;;6.63;;
14306;SDS011;7237;49.500;11.400;2023-03-01T15:00:16;9.33;;;7.20;;
14306;SDS011;7237;49.500;11.400;2023-03-01T15:02:44;10.07;;;7.07;;